sensor_id;sensor_type;location;lat;lon;timestamp;temperature;humidity
4223;DHT22;2125;51.436;14.138;2022-08-02T00:00:23;15.90;85.70
4223;DHT22;2125;51.436;14.138;2022-08-02T00:02:49;15.90;85.80
4223;DHT22;2125;51.436;14.138;2022-08-02T00:05:16;15.90;85.70
4223;DHT22;2125;51.436;14.138;2022-08-02T00:07:44;16.00;85.20
4223;DHT22;2125;51.436;14.138;2022-08-02T00:10:11;15.90;85.20
4223;DHT22;2125;51.436;14.138;2022-08-02T00:12:38;15.90;85.20
4223;DHT22;2125;51.436;14.138;2022-08-02T00:15:06;15.90;85.10
4223;DHT22;2125;51.436;14.138;2022-08-02T00:17:33;15.90;85.30
4223;DHT22;2125;51.436;14.138;2022-08-02T00:20:00;15.90;85.30
4223;DHT22;2125;51.436;14.138;2022-08-02T00:22:27;15.80;85.00
4223;DHT22;2125;51.436;14.138;2022-08-02T00:24:55;15.70;85.10
4223;DHT22;2125;51.436;14.138;2022-08-02T00:27:21;15.60;85.30
4223;DHT22;2125;51.436;14.138;2022-08-02T00:29:48;15.60;85.30
4223;DHT22;2125;51.436;14.138;2022-08-02T00:32:16;15.50;85.20
4223;DHT22;2125;51.436;14.138;2022-08-02T00:34:43;15.40;85.30
4223;DHT22;2125;51.436;14.138;2022-08-02T00:37:09;15.30;85.50
4223;DHT22;2125;51.436;14.138;2022-08-02T00:39:36;15.30;85.90
4223;DHT22;2125;51.436;14.138;2022-08-02T00:42:04;15.40;86.00
4223;DHT22;2125;51.436;14.138;2022-08-02T00:44:30;15.40;85.70
4223;DHT22;2125;51.436;14.138;2022-08-02T00:46:57;15.30;85.70
4223;DHT22;2125;51.436;14.138;2022-08-02T00:49:24;15.30;85.80
4223;DHT22;2125;51.436;14.138;2022-08-02T00:51:51;15.30;85.90
4223;DHT22;2125;51.436;14.138;2022-08-02T00:54:17;15.30;86.00
4223;DHT22;2125;51.436;14.138;2022-08-02T00:56:44;15.20;86.10
4223;DHT22;2125;51.436;14.138;2022-08-02T00:59:12;15.10;86.20
4223;DHT22;2125;51.436;14.138;2022-08-02T01:01:38;15.20;86.40
4223;DHT22;2125;51.436;14.138;2022-08-02T01:04:07;15.20;86.30
4223;DHT22;2125;51.436;14.138;2022-08-02T01:06:34;15.20;86.30
4223;DHT22;2125;51.436;14.138;2022-08-02T01:09:02;15.20;86.30
4223;DHT22;2125;51.436;14.138;2022-08-02T01:11:29;15.30;86.10
4223;DHT22;2125;51.436;14.138;2022-08-02T01:13:59;15.30;85.80
4223;DHT22;2125;51.436;14.138;2022-08-02T01:16:45;15.30;85.80
4223;DHT22;2125;51.436;14.138;2022-08-02T01:19:26;15.30;85.10
4223;DHT22;2125;51.436;14.138;2022-08-02T01:22:10;15.10;84.90
4223;DHT22;2125;51.436;14.138;2022-08-02T01:25:00;15.00;84.90
4223;DHT22;2125;51.436;14.138;2022-08-02T01:27:38;14.80;85.20
4223;DHT22;2125;51.436;14.138;2022-08-02T01:30:07;14.80;85.50
4223;DHT22;2125;51.436;14.138;2022-08-02T01:32:40;14.80;85.80
4223;DHT22;2125;51.436;14.138;2022-08-02T01:35:10;14.80;86.20
4223;DHT22;2125;51.436;14.138;2022-08-02T01:37:41;14.80;86.20
4223;DHT22;2125;51.436;14.138;2022-08-02T01:40:11;14.80;86.30
4223;DHT22;2125;51.436;14.138;2022-08-02T01:42:41;14.70;86.40
4223;DHT22;2125;51.436;14.138;2022-08-02T01:45:11;14.80;86.50
4223;DHT22;2125;51.436;14.138;2022-08-02T01:47:39;14.80;86.10
4223;DHT22;2125;51.436;14.138;2022-08-02T01:50:08;14.70;85.60
4223;DHT22;2125;51.436;14.138;2022-08-02T01:52:39;14.60;85.50
4223;DHT22;2125;51.436;14.138;2022-08-02T01:55:11;14.50;85.50
4223;DHT22;2125;51.436;14.138;2022-08-02T01:57:40;14.50;85.90
4223;DHT22;2125;51.436;14.138;2022-08-02T02:00:09;14.40;86.00
4223;DHT22;2125;51.436;14.138;2022-08-02T02:02:42;14.40;86.10
4223;DHT22;2125;51.436;14.138;2022-08-02T02:05:12;14.40;86.30
4223;DHT22;2125;51.436;14.138;2022-08-02T02:07:40;14.50;86.50
4223;DHT22;2125;51.436;14.138;2022-08-02T02:10:09;14.60;86.50
4223;DHT22;2125;51.436;14.138;2022-08-02T02:12:38;14.70;86.50
4223;DHT22;2125;51.436;14.138;2022-08-02T02:15:10;14.80;86.30
4223;DHT22;2125;51.436;14.138;2022-08-02T02:17:38;14.70;86.10
4223;DHT22;2125;51.436;14.138;2022-08-02T02:20:09;14.70;85.90
4223;DHT22;2125;51.436;14.138;2022-08-02T02:22:38;14.60;86.00
4223;DHT22;2125;51.436;14.138;2022-08-02T02:25:06;14.60;86.10
4223;DHT22;2125;51.436;14.138;2022-08-02T02:27:33;14.60;86.20
4223;DHT22;2125;51.436;14.138;2022-08-02T02:30:02;14.60;86.20
4223;DHT22;2125;51.436;14.138;2022-08-02T02:32:31;14.50;86.10
4223;DHT22;2125;51.436;14.138;2022-08-02T02:35:00;14.50;86.10
4223;DHT22;2125;51.436;14.138;2022-08-02T02:37:30;14.50;86.40
4223;DHT22;2125;51.436;14.138;2022-08-02T02:39:59;14.70;86.40
4223;DHT22;2125;51.436;14.138;2022-08-02T02:42:30;14.70;86.20
4223;DHT22;2125;51.436;14.138;2022-08-02T02:44:58;14.70;86.20
4223;DHT22;2125;51.436;14.138;2022-08-02T02:47:27;14.80;86.20
4223;DHT22;2125;51.436;14.138;2022-08-02T02:49:56;14.90;86.30
4223;DHT22;2125;51.436;14.138;2022-08-02T02:52:24;14.90;86.30
4223;DHT22;2125;51.436;14.138;2022-08-02T02:54:53;15.00;86.40
4223;DHT22;2125;51.436;14.138;2022-08-02T02:57:21;15.20;86.50
4223;DHT22;2125;51.436;14.138;2022-08-02T02:59:48;15.30;86.60
4223;DHT22;2125;51.436;14.138;2022-08-02T03:02:15;15.40;86.50
4223;DHT22;2125;51.436;14.138;2022-08-02T03:04:42;15.60;86.50
4223;DHT22;2125;51.436;14.138;2022-08-02T03:07:11;15.60;86.40
4223;DHT22;2125;51.436;14.138;2022-08-02T03:09:37;15.60;86.40
4223;DHT22;2125;51.436;14.138;2022-08-02T03:12:05;15.60;86.30
4223;DHT22;2125;51.436;14.138;2022-08-02T03:14:32;15.50;86.10
4223;DHT22;2125;51.436;14.138;2022-08-02T03:17:00;15.50;86.10
4223;DHT22;2125;51.436;14.138;2022-08-02T03:19:26;15.50;86.10
4223;DHT22;2125;51.436;14.138;2022-08-02T03:21:56;15.50;86.10
4223;DHT22;2125;51.436;14.138;2022-08-02T03:24:24;15.50;86.20
4223;DHT22;2125;51.436;14.138;2022-08-02T03:26:51;15.50;86.30
4223;DHT22;2125;51.436;14.138;2022-08-02T03:29:19;15.50;86.10
4223;DHT22;2125;51.436;14.138;2022-08-02T03:31:46;15.50;86.20
4223;DHT22;2125;51.436;14.138;2022-08-02T03:34:13;15.60;86.30
4223;DHT22;2125;51.436;14.138;2022-08-02T03:36:46;15.70;86.30
4223;DHT22;2125;51.436;14.138;2022-08-02T03:39:14;15.60;86.20
4223;DHT22;2125;51.436;14.138;2022-08-02T03:41:43;15.70;86.00
4223;DHT22;2125;51.436;14.138;2022-08-02T03:44:11;15.60;85.50
4223;DHT22;2125;51.436;14.138;2022-08-02T03:46:39;15.60;85.40
4223;DHT22;2125;51.436;14.138;2022-08-02T03:49:07;15.60;85.30
4223;DHT22;2125;51.436;14.138;2022-08-02T03:51:34;15.50;85.30
4223;DHT22;2125;51.436;14.138;2022-08-02T03:54:02;15.60;85.30
4223;DHT22;2125;51.436;14.138;2022-08-02T03:56:29;15.60;85.50
4223;DHT22;2125;51.436;14.138;2022-08-02T03:59:11;15.60;85.50
4223;DHT22;2125;51.436;14.138;2022-08-02T04:01:39;15.70;85.60
4223;DHT22;2125;51.436;14.138;2022-08-02T04:04:06;15.70;85.80
4223;DHT22;2125;51.436;14.138;2022-08-02T04:06:33;15.80;85.70
4223;DHT22;2125;51.436;14.138;2022-08-02T04:09:00;15.90;85.80
4223;DHT22;2125;51.436;14.138;2022-08-02T04:11:27;16.40;85.80
4223;DHT22;2125;51.436;14.138;2022-08-02T04:13:56;16.90;85.20
4223;DHT22;2125;51.436;14.138;2022-08-02T04:16:28;17.60;84.20
4223;DHT22;2125;51.436;14.138;2022-08-02T04:19:00;18.30;82.80
4223;DHT22;2125;51.436;14.138;2022-08-02T04:21:30;18.70;80.80
4223;DHT22;2125;51.436;14.138;2022-08-02T04:23:58;18.90;80.00
4223;DHT22;2125;51.436;14.138;2022-08-02T04:26:27;19.20;79.70
4223;DHT22;2125;51.436;14.138;2022-08-02T04:28:54;19.40;79.40
4223;DHT22;2125;51.436;14.138;2022-08-02T04:31:22;19.40;79.00
4223;DHT22;2125;51.436;14.138;2022-08-02T04:33:51;19.50;79.10
4223;DHT22;2125;51.436;14.138;2022-08-02T04:36:17;19.40;78.80
4223;DHT22;2125;51.436;14.138;2022-08-02T04:38:44;19.00;80.10
4223;DHT22;2125;51.436;14.138;2022-08-02T04:41:11;18.70;82.00
4223;DHT22;2125;51.436;14.138;2022-08-02T04:43:37;18.50;82.60
4223;DHT22;2125;51.436;14.138;2022-08-02T04:46:04;18.30;82.90
4223;DHT22;2125;51.436;14.138;2022-08-02T04:48:30;18.20;83.20
4223;DHT22;2125;51.436;14.138;2022-08-02T04:50:58;18.10;83.40
4223;DHT22;2125;51.436;14.138;2022-08-02T04:53:25;18.10;83.50
4223;DHT22;2125;51.436;14.138;2022-08-02T04:55:52;18.00;83.70
4223;DHT22;2125;51.436;14.138;2022-08-02T04:58:18;18.00;84.20
4223;DHT22;2125;51.436;14.138;2022-08-02T05:00:45;18.10;84.30
4223;DHT22;2125;51.436;14.138;2022-08-02T05:03:11;18.20;84.20
4223;DHT22;2125;51.436;14.138;2022-08-02T05:05:38;18.70;84.20
4223;DHT22;2125;51.436;14.138;2022-08-02T05:08:06;19.20;83.30
4223;DHT22;2125;51.436;14.138;2022-08-02T05:10:33;19.50;82.00
4223;DHT22;2125;51.436;14.138;2022-08-02T05:13:00;19.50;81.10
4223;DHT22;2125;51.436;14.138;2022-08-02T05:15:28;19.40;81.20
4223;DHT22;2125;51.436;14.138;2022-08-02T05:17:55;19.20;81.50
4223;DHT22;2125;51.436;14.138;2022-08-02T05:20:21;19.10;81.90
4223;DHT22;2125;51.436;14.138;2022-08-02T05:22:48;19.00;81.80
4223;DHT22;2125;51.436;14.138;2022-08-02T05:25:16;18.90;82.10
4223;DHT22;2125;51.436;14.138;2022-08-02T05:27:42;18.80;82.20
4223;DHT22;2125;51.436;14.138;2022-08-02T05:30:09;18.60;82.40
4223;DHT22;2125;51.436;14.138;2022-08-02T05:32:42;18.50;82.80
4223;DHT22;2125;51.436;14.138;2022-08-02T05:35:09;18.50;83.00
4223;DHT22;2125;51.436;14.138;2022-08-02T05:37:36;18.50;83.30
4223;DHT22;2125;51.436;14.138;2022-08-02T05:40:04;18.40;83.40
4223;DHT22;2125;51.436;14.138;2022-08-02T05:42:32;18.40;83.60
4223;DHT22;2125;51.436;14.138;2022-08-02T05:44:59;18.30;83.70
4223;DHT22;2125;51.436;14.138;2022-08-02T05:47:26;18.40;83.80
4223;DHT22;2125;51.436;14.138;2022-08-02T05:49:52;19.00;83.80
4223;DHT22;2125;51.436;14.138;2022-08-02T05:52:24;20.10;82.20
4223;DHT22;2125;51.436;14.138;2022-08-02T05:54:56;21.30;78.70
4223;DHT22;2125;51.436;14.138;2022-08-02T05:57:32;22.30;74.30
4223;DHT22;2125;51.436;14.138;2022-08-02T06:00:07;22.90;72.70
4223;DHT22;2125;51.436;14.138;2022-08-02T06:02:49;23.30;71.30
4223;DHT22;2125;51.436;14.138;2022-08-02T06:05:19;23.40;70.50
4223;DHT22;2125;51.436;14.138;2022-08-02T06:07:47;23.10;70.60
4223;DHT22;2125;51.436;14.138;2022-08-02T06:10:19;23.00;71.20
4223;DHT22;2125;51.436;14.138;2022-08-02T06:12:49;23.20;71.40
4223;DHT22;2125;51.436;14.138;2022-08-02T06:15:18;23.50;69.50
4223;DHT22;2125;51.436;14.138;2022-08-02T06:17:47;23.70;68.90
4223;DHT22;2125;51.436;14.138;2022-08-02T06:20:14;23.80;68.60
4223;DHT22;2125;51.436;14.138;2022-08-02T06:22:42;24.00;67.70
4223;DHT22;2125;51.436;14.138;2022-08-02T06:25:10;24.20;67.10
4223;DHT22;2125;51.436;14.138;2022-08-02T06:27:38;24.60;66.30
4223;DHT22;2125;51.436;14.138;2022-08-02T06:30:06;24.90;65.40
4223;DHT22;2125;51.436;14.138;2022-08-02T06:32:35;25.00;64.90
4223;DHT22;2125;51.436;14.138;2022-08-02T06:35:03;25.20;64.20
4223;DHT22;2125;51.436;14.138;2022-08-02T06:37:35;25.50;63.60
4223;DHT22;2125;51.436;14.138;2022-08-02T06:40:06;25.80;62.10
4223;DHT22;2125;51.436;14.138;2022-08-02T06:42:41;25.60;63.00
4223;DHT22;2125;51.436;14.138;2022-08-02T06:45:09;25.30;63.60
4223;DHT22;2125;51.436;14.138;2022-08-02T06:47:37;25.30;64.60
4223;DHT22;2125;51.436;14.138;2022-08-02T06:50:05;25.20;64.00
4223;DHT22;2125;51.436;14.138;2022-08-02T06:52:31;24.90;64.50
4223;DHT22;2125;51.436;14.138;2022-08-02T06:55:01;24.30;66.00
4223;DHT22;2125;51.436;14.138;2022-08-02T06:57:29;24.20;66.80
4223;DHT22;2125;51.436;14.138;2022-08-02T06:59:56;24.10;67.20
4223;DHT22;2125;51.436;14.138;2022-08-02T07:02:26;24.00;67.70
4223;DHT22;2125;51.436;14.138;2022-08-02T07:04:54;24.00;68.20
4223;DHT22;2125;51.436;14.138;2022-08-02T07:07:20;23.80;67.90
4223;DHT22;2125;51.436;14.138;2022-08-02T07:09:47;23.80;68.10
4223;DHT22;2125;51.436;14.138;2022-08-02T07:12:15;23.70;69.20
4223;DHT22;2125;51.436;14.138;2022-08-02T07:14:42;23.70;69.20
4223;DHT22;2125;51.436;14.138;2022-08-02T07:17:08;23.70;69.30
4223;DHT22;2125;51.436;14.138;2022-08-02T07:19:35;23.80;68.60
4223;DHT22;2125;51.436;14.138;2022-08-02T07:22:03;23.80;68.60
4223;DHT22;2125;51.436;14.138;2022-08-02T07:24:30;23.70;68.80
4223;DHT22;2125;51.436;14.138;2022-08-02T07:26:57;23.50;68.90
4223;DHT22;2125;51.436;14.138;2022-08-02T07:29:23;23.70;68.60
4223;DHT22;2125;51.436;14.138;2022-08-02T07:31:50;23.80;68.30
4223;DHT22;2125;51.436;14.138;2022-08-02T07:34:17;23.70;68.60
4223;DHT22;2125;51.436;14.138;2022-08-02T07:36:44;23.70;68.50
4223;DHT22;2125;51.436;14.138;2022-08-02T07:39:12;23.60;68.20
4223;DHT22;2125;51.436;14.138;2022-08-02T07:41:38;23.60;68.80
4223;DHT22;2125;51.436;14.138;2022-08-02T07:44:05;23.80;68.20
4223;DHT22;2125;51.436;14.138;2022-08-02T07:46:32;24.00;68.70
4223;DHT22;2125;51.436;14.138;2022-08-02T07:48:58;24.20;67.70
4223;DHT22;2125;51.436;14.138;2022-08-02T07:51:25;24.50;66.30
4223;DHT22;2125;51.436;14.138;2022-08-02T07:53:51;24.60;65.90
4223;DHT22;2125;51.436;14.138;2022-08-02T07:56:19;24.50;66.20
4223;DHT22;2125;51.436;14.138;2022-08-02T07:58:46;24.40;65.30
4223;DHT22;2125;51.436;14.138;2022-08-02T08:01:13;24.50;64.60
4223;DHT22;2125;51.436;14.138;2022-08-02T08:03:40;24.60;64.50
4223;DHT22;2125;51.436;14.138;2022-08-02T08:06:07;24.80;63.60
4223;DHT22;2125;51.436;14.138;2022-08-02T08:08:34;24.80;64.00
4223;DHT22;2125;51.436;14.138;2022-08-02T08:11:00;24.70;64.00
4223;DHT22;2125;51.436;14.138;2022-08-02T08:13:28;24.70;65.30
4223;DHT22;2125;51.436;14.138;2022-08-02T08:15:55;24.60;64.40
4223;DHT22;2125;51.436;14.138;2022-08-02T08:18:22;24.80;63.50
4223;DHT22;2125;51.436;14.138;2022-08-02T08:20:48;24.80;62.90
4223;DHT22;2125;51.436;14.138;2022-08-02T08:23:16;24.60;62.70
4223;DHT22;2125;51.436;14.138;2022-08-02T08:25:42;24.50;64.10
4223;DHT22;2125;51.436;14.138;2022-08-02T08:28:09;24.40;63.60
4223;DHT22;2125;51.436;14.138;2022-08-02T08:30:39;24.50;63.80
4223;DHT22;2125;51.436;14.138;2022-08-02T08:33:06;24.60;62.60
4223;DHT22;2125;51.436;14.138;2022-08-02T08:35:32;25.00;61.80
4223;DHT22;2125;51.436;14.138;2022-08-02T08:37:59;25.30;61.70
4223;DHT22;2125;51.436;14.138;2022-08-02T08:40:26;25.60;60.70
4223;DHT22;2125;51.436;14.138;2022-08-02T08:42:52;25.90;59.70
4223;DHT22;2125;51.436;14.138;2022-08-02T08:45:19;26.30;60.00
4223;DHT22;2125;51.436;14.138;2022-08-02T08:47:51;26.40;59.00
4223;DHT22;2125;51.436;14.138;2022-08-02T08:50:20;26.50;59.00
4223;DHT22;2125;51.436;14.138;2022-08-02T08:52:48;26.20;59.30
4223;DHT22;2125;51.436;14.138;2022-08-02T08:55:14;26.10;59.10
4223;DHT22;2125;51.436;14.138;2022-08-02T08:57:42;26.10;59.00
4223;DHT22;2125;51.436;14.138;2022-08-02T09:00:10;26.40;59.20
4223;DHT22;2125;51.436;14.138;2022-08-02T09:02:39;26.90;57.70
4223;DHT22;2125;51.436;14.138;2022-08-02T09:05:09;27.10;57.20
4223;DHT22;2125;51.436;14.138;2022-08-02T09:07:36;26.90;56.60
4223;DHT22;2125;51.436;14.138;2022-08-02T09:10:35;26.70;57.70
4223;DHT22;2125;51.436;14.138;2022-08-02T09:13:09;26.60;57.60
4223;DHT22;2125;51.436;14.138;2022-08-02T09:15:37;26.60;58.30
4223;DHT22;2125;51.436;14.138;2022-08-02T09:18:04;26.70;57.20
4223;DHT22;2125;51.436;14.138;2022-08-02T09:20:33;26.80;57.10
4223;DHT22;2125;51.436;14.138;2022-08-02T09:23:06;26.80;57.30
4223;DHT22;2125;51.436;14.138;2022-08-02T09:25:34;26.80;56.40
4223;DHT22;2125;51.436;14.138;2022-08-02T09:28:02;27.00;56.60
4223;DHT22;2125;51.436;14.138;2022-08-02T09:30:29;27.50;55.50
4223;DHT22;2125;51.436;14.138;2022-08-02T09:32:56;27.70;54.00
4223;DHT22;2125;51.436;14.138;2022-08-02T09:35:36;28.00;53.20
4223;DHT22;2125;51.436;14.138;2022-08-02T09:38:10;28.00;53.40
4223;DHT22;2125;51.436;14.138;2022-08-02T09:40:38;27.70;54.30
4223;DHT22;2125;51.436;14.138;2022-08-02T09:43:04;27.70;53.70
4223;DHT22;2125;51.436;14.138;2022-08-02T09:45:31;27.80;53.60
4223;DHT22;2125;51.436;14.138;2022-08-02T09:48:00;28.10;52.30
4223;DHT22;2125;51.436;14.138;2022-08-02T09:50:27;28.00;52.70
4223;DHT22;2125;51.436;14.138;2022-08-02T09:52:55;27.70;53.10
4223;DHT22;2125;51.436;14.138;2022-08-02T09:55:22;27.60;53.80
4223;DHT22;2125;51.436;14.138;2022-08-02T09:57:49;27.50;53.50
4223;DHT22;2125;51.436;14.138;2022-08-02T10:00:16;27.20;53.80
4223;DHT22;2125;51.436;14.138;2022-08-02T10:03:04;27.20;54.00
4223;DHT22;2125;51.436;14.138;2022-08-02T10:05:44;27.20;54.20
4223;DHT22;2125;51.436;14.138;2022-08-02T10:08:13;27.20;55.10
4223;DHT22;2125;51.436;14.138;2022-08-02T10:10:40;27.20;54.50
4223;DHT22;2125;51.436;14.138;2022-08-02T10:13:07;27.10;53.90
4223;DHT22;2125;51.436;14.138;2022-08-02T10:15:35;26.90;54.50
4223;DHT22;2125;51.436;14.138;2022-08-02T10:18:03;27.10;54.90
4223;DHT22;2125;51.436;14.138;2022-08-02T10:20:42;27.10;55.60
4223;DHT22;2125;51.436;14.138;2022-08-02T10:23:13;27.10;55.70
4223;DHT22;2125;51.436;14.138;2022-08-02T10:25:41;27.20;56.00
4223;DHT22;2125;51.436;14.138;2022-08-02T10:28:10;27.30;54.80
4223;DHT22;2125;51.436;14.138;2022-08-02T10:30:39;27.30;53.80
4223;DHT22;2125;51.436;14.138;2022-08-02T10:33:09;27.40;54.20
4223;DHT22;2125;51.436;14.138;2022-08-02T10:35:37;27.30;56.30
4223;DHT22;2125;51.436;14.138;2022-08-02T10:38:06;27.40;53.90
4223;DHT22;2125;51.436;14.138;2022-08-02T10:40:46;27.50;53.70
4223;DHT22;2125;51.436;14.138;2022-08-02T10:43:39;27.50;53.90
4223;DHT22;2125;51.436;14.138;2022-08-02T10:46:20;27.70;52.70
4223;DHT22;2125;51.436;14.138;2022-08-02T10:49:07;28.00;52.60
4223;DHT22;2125;51.436;14.138;2022-08-02T10:54:39;28.60;52.50
4223;DHT22;2125;51.436;14.138;2022-08-02T10:57:19;28.60;51.80
4223;DHT22;2125;51.436;14.138;2022-08-02T10:59:47;28.80;49.80
4223;DHT22;2125;51.436;14.138;2022-08-02T11:02:33;29.00;51.10
4223;DHT22;2125;51.436;14.138;2022-08-02T11:05:08;28.80;52.00
4223;DHT22;2125;51.436;14.138;2022-08-02T11:07:37;28.80;51.40
4223;DHT22;2125;51.436;14.138;2022-08-02T11:10:30;28.90;50.90
4223;DHT22;2125;51.436;14.138;2022-08-02T11:13:03;29.20;50.10
4223;DHT22;2125;51.436;14.138;2022-08-02T11:15:47;29.40;48.90
4223;DHT22;2125;51.436;14.138;2022-08-02T11:18:14;29.10;49.20
4223;DHT22;2125;51.436;14.138;2022-08-02T11:20:41;29.10;49.60
4223;DHT22;2125;51.436;14.138;2022-08-02T11:23:33;28.90;50.30
4223;DHT22;2125;51.436;14.138;2022-08-02T11:26:00;28.70;51.80
4223;DHT22;2125;51.436;14.138;2022-08-02T11:28:30;28.70;51.80
4223;DHT22;2125;51.436;14.138;2022-08-02T11:30:59;29.00;50.30
4223;DHT22;2125;51.436;14.138;2022-08-02T11:33:30;29.40;49.10
4223;DHT22;2125;51.436;14.138;2022-08-02T11:36:00;29.40;48.50
4223;DHT22;2125;51.436;14.138;2022-08-02T11:38:28;29.40;48.60
4223;DHT22;2125;51.436;14.138;2022-08-02T11:40:54;29.20;48.80
4223;DHT22;2125;51.436;14.138;2022-08-02T11:43:22;28.90;49.20
4223;DHT22;2125;51.436;14.138;2022-08-02T11:45:50;28.80;51.60
4223;DHT22;2125;51.436;14.138;2022-08-02T11:48:32;28.60;49.90
4223;DHT22;2125;51.436;14.138;2022-08-02T11:51:07;28.50;51.20
4223;DHT22;2125;51.436;14.138;2022-08-02T11:53:43;28.50;49.70
4223;DHT22;2125;51.436;14.138;2022-08-02T11:56:11;28.50;51.30
4223;DHT22;2125;51.436;14.138;2022-08-02T11:58:39;28.50;49.50
4223;DHT22;2125;51.436;14.138;2022-08-02T12:01:07;28.60;49.60
4223;DHT22;2125;51.436;14.138;2022-08-02T12:03:35;28.80;49.70
4223;DHT22;2125;51.436;14.138;2022-08-02T12:06:02;29.10;49.50
4223;DHT22;2125;51.436;14.138;2022-08-02T12:08:29;29.30;49.70
4223;DHT22;2125;51.436;14.138;2022-08-02T12:10:56;29.20;48.30
4223;DHT22;2125;51.436;14.138;2022-08-02T12:13:25;29.10;48.90
4223;DHT22;2125;51.436;14.138;2022-08-02T12:15:52;29.00;49.00
4223;DHT22;2125;51.436;14.138;2022-08-02T12:18:47;29.00;49.80
4223;DHT22;2125;51.436;14.138;2022-08-02T12:21:32;28.90;48.30
4223;DHT22;2125;51.436;14.138;2022-08-02T12:23:58;28.70;48.10
4223;DHT22;2125;51.436;14.138;2022-08-02T12:26:25;28.50;48.20
4223;DHT22;2125;51.436;14.138;2022-08-02T12:28:54;28.40;50.00
4223;DHT22;2125;51.436;14.138;2022-08-02T12:31:21;28.40;50.00
4223;DHT22;2125;51.436;14.138;2022-08-02T12:34:10;28.40;49.40
4223;DHT22;2125;51.436;14.138;2022-08-02T12:36:39;28.50;49.50
4223;DHT22;2125;51.436;14.138;2022-08-02T12:39:10;28.60;49.20
4223;DHT22;2125;51.436;14.138;2022-08-02T12:41:37;28.50;50.40
4223;DHT22;2125;51.436;14.138;2022-08-02T12:44:03;28.40;49.50
4223;DHT22;2125;51.436;14.138;2022-08-02T12:46:30;28.50;49.70
4223;DHT22;2125;51.436;14.138;2022-08-02T12:48:57;28.50;50.50
4223;DHT22;2125;51.436;14.138;2022-08-02T12:51:30;28.40;48.70
4223;DHT22;2125;51.436;14.138;2022-08-02T12:54:10;28.40;49.50
4223;DHT22;2125;51.436;14.138;2022-08-02T12:56:38;28.40;49.30
4223;DHT22;2125;51.436;14.138;2022-08-02T12:59:05;28.40;48.00
4223;DHT22;2125;51.436;14.138;2022-08-02T13:01:32;28.40;47.90
4223;DHT22;2125;51.436;14.138;2022-08-02T13:03:58;28.40;47.80
4223;DHT22;2125;51.436;14.138;2022-08-02T13:06:26;28.30;48.30
4223;DHT22;2125;51.436;14.138;2022-08-02T13:08:53;28.40;48.40
4223;DHT22;2125;51.436;14.138;2022-08-02T13:11:21;28.40;48.30
4223;DHT22;2125;51.436;14.138;2022-08-02T13:13:47;28.40;48.40
4223;DHT22;2125;51.436;14.138;2022-08-02T13:16:14;28.30;48.10
4223;DHT22;2125;51.436;14.138;2022-08-02T13:18:41;28.20;48.40
4223;DHT22;2125;51.436;14.138;2022-08-02T13:21:10;28.10;49.10
4223;DHT22;2125;51.436;14.138;2022-08-02T13:23:38;28.20;49.60
4223;DHT22;2125;51.436;14.138;2022-08-02T13:26:05;28.50;49.60
4223;DHT22;2125;51.436;14.138;2022-08-02T13:28:32;28.50;48.60
4223;DHT22;2125;51.436;14.138;2022-08-02T13:30:59;28.60;47.40
4223;DHT22;2125;51.436;14.138;2022-08-02T13:33:26;28.70;49.30
4223;DHT22;2125;51.436;14.138;2022-08-02T13:35:53;28.70;48.20
4223;DHT22;2125;51.436;14.138;2022-08-02T13:38:19;28.80;47.50
4223;DHT22;2125;51.436;14.138;2022-08-02T13:40:47;28.80;48.50
4223;DHT22;2125;51.436;14.138;2022-08-02T13:43:31;28.90;47.90
4223;DHT22;2125;51.436;14.138;2022-08-02T13:45:58;28.90;46.90
4223;DHT22;2125;51.436;14.138;2022-08-02T13:48:25;28.80;47.20
4223;DHT22;2125;51.436;14.138;2022-08-02T13:50:52;28.50;47.80
4223;DHT22;2125;51.436;14.138;2022-08-02T13:53:19;28.40;48.30
4223;DHT22;2125;51.436;14.138;2022-08-02T13:55:45;28.50;47.20
4223;DHT22;2125;51.436;14.138;2022-08-02T13:58:13;28.50;47.10
4223;DHT22;2125;51.436;14.138;2022-08-02T14:00:40;28.40;47.10
4223;DHT22;2125;51.436;14.138;2022-08-02T14:03:07;28.40;48.10
4223;DHT22;2125;51.436;14.138;2022-08-02T14:05:36;28.40;47.80
4223;DHT22;2125;51.436;14.138;2022-08-02T14:08:03;28.30;47.30
4223;DHT22;2125;51.436;14.138;2022-08-02T14:10:30;28.40;47.30
4223;DHT22;2125;51.436;14.138;2022-08-02T14:12:56;28.40;47.10
4223;DHT22;2125;51.436;14.138;2022-08-02T14:15:24;28.40;47.30
4223;DHT22;2125;51.436;14.138;2022-08-02T14:17:51;28.50;48.10
4223;DHT22;2125;51.436;14.138;2022-08-02T14:20:18;28.60;47.40
4223;DHT22;2125;51.436;14.138;2022-08-02T14:22:44;28.60;46.80
4223;DHT22;2125;51.436;14.138;2022-08-02T14:25:11;28.60;46.50
4223;DHT22;2125;51.436;14.138;2022-08-02T14:27:38;28.50;47.00
4223;DHT22;2125;51.436;14.138;2022-08-02T14:30:05;28.60;48.00
4223;DHT22;2125;51.436;14.138;2022-08-02T14:32:34;28.70;46.40
4223;DHT22;2125;51.436;14.138;2022-08-02T14:35:00;28.80;46.40
4223;DHT22;2125;51.436;14.138;2022-08-02T14:37:27;28.80;45.90
4223;DHT22;2125;51.436;14.138;2022-08-02T14:39:54;28.80;46.20
4223;DHT22;2125;51.436;14.138;2022-08-02T14:42:20;28.90;46.80
4223;DHT22;2125;51.436;14.138;2022-08-02T14:44:47;28.90;46.90
4223;DHT22;2125;51.436;14.138;2022-08-02T14:47:13;28.80;46.20
4223;DHT22;2125;51.436;14.138;2022-08-02T14:49:41;28.80;46.50
4223;DHT22;2125;51.436;14.138;2022-08-02T14:52:08;28.80;47.30
4223;DHT22;2125;51.436;14.138;2022-08-02T14:54:37;28.90;46.20
4223;DHT22;2125;51.436;14.138;2022-08-02T14:57:06;28.90;46.50
4223;DHT22;2125;51.436;14.138;2022-08-02T14:59:32;28.90;47.50
4223;DHT22;2125;51.436;14.138;2022-08-02T15:01:59;29.10;45.50
4223;DHT22;2125;51.436;14.138;2022-08-02T15:04:26;29.20;46.20
4223;DHT22;2125;51.436;14.138;2022-08-02T15:06:54;29.20;45.50
4223;DHT22;2125;51.436;14.138;2022-08-02T15:09:21;29.30;46.90
4223;DHT22;2125;51.436;14.138;2022-08-02T15:11:48;29.40;45.70
4223;DHT22;2125;51.436;14.138;2022-08-02T15:14:14;29.30;46.00
4223;DHT22;2125;51.436;14.138;2022-08-02T15:16:41;29.40;46.50
4223;DHT22;2125;51.436;14.138;2022-08-02T15:19:08;29.50;46.00
4223;DHT22;2125;51.436;14.138;2022-08-02T15:21:34;29.70;44.50
4223;DHT22;2125;51.436;14.138;2022-08-02T15:24:03;29.70;46.10
4223;DHT22;2125;51.436;14.138;2022-08-02T15:26:29;29.90;45.20
4223;DHT22;2125;51.436;14.138;2022-08-02T15:28:56;29.90;45.20
4223;DHT22;2125;51.436;14.138;2022-08-02T15:31:23;30.00;44.60
4223;DHT22;2125;51.436;14.138;2022-08-02T15:33:49;30.10;45.60
4223;DHT22;2125;51.436;14.138;2022-08-02T15:36:16;30.00;43.70
4223;DHT22;2125;51.436;14.138;2022-08-02T15:38:42;30.00;43.80
4223;DHT22;2125;51.436;14.138;2022-08-02T15:41:10;29.80;44.20
4223;DHT22;2125;51.436;14.138;2022-08-02T15:43:38;29.60;45.80
4223;DHT22;2125;51.436;14.138;2022-08-02T15:46:04;29.60;46.20
4223;DHT22;2125;51.436;14.138;2022-08-02T15:48:32;29.70;45.30
4223;DHT22;2125;51.436;14.138;2022-08-02T15:50:58;29.80;45.20
4223;DHT22;2125;51.436;14.138;2022-08-02T15:53:26;30.00;43.70
4223;DHT22;2125;51.436;14.138;2022-08-02T15:55:52;30.10;43.80
4223;DHT22;2125;51.436;14.138;2022-08-02T15:58:20;30.20;44.80